createdAt,value
2023-04-11T00:05:08.244Z,3.20
2023-04-11T00:09:30.906Z,3.20
2023-04-11T00:13:58.002Z,3.00
2023-04-11T00:28:19.513Z,3.00
2023-04-11T00:32:44.159Z,2.90
2023-04-11T00:37:12.835Z,2.80
2023-04-11T00:42:34.009Z,2.80
2023-04-11T00:47:03.175Z,2.90
2023-04-11T00:51:21.166Z,2.90
2023-04-11T00:55:41.865Z,2.90
2023-04-11T01:00:15.477Z,2.90
2023-04-11T01:05:06.958Z,2.90
2023-04-11T01:09:34.777Z,3.00
2023-04-11T01:18:21.857Z,3.00
2023-04-11T01:23:29.874Z,3.00
2023-04-11T01:28:23.496Z,3.00
2023-04-11T01:32:57.942Z,3.00
2023-04-11T01:37:42.063Z,3.00
2023-04-11T01:42:05.832Z,3.00
2023-04-11T01:46:19.904Z,3.00
2023-04-11T01:50:45.212Z,3.00
2023-04-11T01:55:12.059Z,3.00
2023-04-11T02:00:00.572Z,3.10
2023-04-11T02:09:47.309Z,3.20
2023-04-11T02:18:48.884Z,3.30
2023-04-11T02:23:04.626Z,3.40
2023-04-11T02:27:31.506Z,3.40
2023-04-11T02:32:12.775Z,3.50
2023-04-11T02:36:19.261Z,3.50
2023-04-11T02:40:54.866Z,3.50
2023-04-11T02:45:05.979Z,3.50
2023-04-11T02:49:58.909Z,3.50
2023-04-11T02:54:15.968Z,3.50
2023-04-11T03:03:15.527Z,3.50
2023-04-11T03:07:31.465Z,3.50
2023-04-11T03:11:42.309Z,3.50
2023-04-11T03:15:53.828Z,3.60
2023-04-11T03:20:10.435Z,3.60
2023-04-11T03:24:35.705Z,3.60
2023-04-11T03:28:48.817Z,3.60
2023-04-11T03:42:04.281Z,3.50
2023-04-11T03:46:32.768Z,3.50
2023-04-11T03:50:45.818Z,3.50
2023-04-11T03:55:04.234Z,3.50
2023-04-11T03:59:28.489Z,3.50
2023-04-11T04:08:22.538Z,3.60
2023-04-11T04:12:50.210Z,3.60
2023-04-11T04:17:06.100Z,3.80
2023-04-11T04:21:14.690Z,4.20
2023-04-11T04:25:23.013Z,4.50
2023-04-11T04:30:06.299Z,4.40
2023-04-11T04:34:50.312Z,4.20
2023-04-11T04:39:08.676Z,4.10
2023-04-11T04:43:33.861Z,4.10
2023-04-11T04:48:05.898Z,4.00
2023-04-11T04:52:18.080Z,4.00
2023-04-11T04:56:32.824Z,4.00
2023-04-11T05:00:58.509Z,4.00
2023-04-11T05:05:06.373Z,4.10
2023-04-11T05:09:34.462Z,4.10
2023-04-11T05:14:06.805Z,4.20
2023-04-11T05:18:15.284Z,4.30
2023-04-11T05:22:24.671Z,4.40
2023-04-11T05:26:40.596Z,4.60
2023-04-11T05:30:56.778Z,4.80
2023-04-11T05:35:14.774Z,5.00
2023-04-11T05:44:09.169Z,5.40
2023-04-11T05:48:56.054Z,5.70
2023-04-11T05:53:04.984Z,6.00
2023-04-11T05:57:10.332Z,6.20
2023-04-11T06:01:19.851Z,6.40
2023-04-11T06:05:31.462Z,6.50
2023-04-11T06:09:35.018Z,6.70
2023-04-11T06:14:29.267Z,6.80
2023-04-11T06:18:34.155Z,7.10
2023-04-11T06:22:37.685Z,7.20
2023-04-11T06:26:42.106Z,7.30
2023-04-11T06:30:45.633Z,7.40
2023-04-11T06:34:51.634Z,7.50
2023-04-11T06:38:55.035Z,7.60
2023-04-11T06:43:01.149Z,7.70
2023-04-11T06:47:05.007Z,7.80
2023-04-11T06:51:17.086Z,7.90
2023-04-11T06:55:21.223Z,8.00
2023-04-11T06:59:28.656Z,8.20
2023-04-11T07:03:32.733Z,8.20
2023-04-11T07:07:38.003Z,8.20
2023-04-11T07:12:06.780Z,8.30
2023-04-11T07:16:11.133Z,8.30
2023-04-11T07:20:15.760Z,8.40
2023-04-11T07:24:21.161Z,8.50
2023-04-11T07:28:25.767Z,8.50
2023-04-11T07:32:31.989Z,8.50
2023-04-11T07:37:30.439Z,8.50
2023-04-11T07:41:36.423Z,8.20
2023-04-11T07:46:30.258Z,8.00
2023-04-11T07:50:34.027Z,7.80
2023-04-11T07:54:43.904Z,7.60
2023-04-11T07:59:34.365Z,7.50
2023-04-11T08:03:43.942Z,7.40
2023-04-11T08:07:47.769Z,7.50
2023-04-11T08:12:45.762Z,7.50
2023-04-11T08:16:52.846Z,7.50
2023-04-11T08:20:56.689Z,7.60
2023-04-11T08:25:08.174Z,7.70
2023-04-11T08:29:12.724Z,7.70
2023-04-11T08:33:28.763Z,7.60
2023-04-11T08:37:32.857Z,7.70
2023-04-11T08:41:39.976Z,7.70
2023-04-11T08:45:44.143Z,7.80
2023-04-11T08:49:51.280Z,7.90
2023-04-11T08:54:13.944Z,8.10
2023-04-11T08:58:24.977Z,8.20
2023-04-11T09:03:04.589Z,8.40
2023-04-11T09:07:10.222Z,8.50
2023-04-11T09:12:00.670Z,8.80
2023-04-11T09:16:09.452Z,8.90
2023-04-11T09:20:25.534Z,8.80
2023-04-11T09:24:32.393Z,8.80
2023-04-11T09:28:44.876Z,8.70
2023-04-11T09:32:48.955Z,8.60
2023-04-11T10:29:58.152Z,11.10
2023-04-11T10:34:19.687Z,10.70
2023-04-11T10:38:47.382Z,10.30
2023-04-11T10:42:51.597Z,9.80
2023-04-11T10:46:56.881Z,9.60
2023-04-11T10:51:25.140Z,9.30
2023-04-11T10:55:30.083Z,9.30
2023-04-11T11:00:14.309Z,9.80
2023-04-11T11:04:19.515Z,10.10
2023-04-11T11:14:36.457Z,10.40
2023-04-11T11:18:40.575Z,10.40
2023-04-11T11:22:44.329Z,10.30
2023-04-11T11:26:49.689Z,10.10
2023-04-11T11:30:55.948Z,9.80
2023-04-11T11:35:30.857Z,9.60
2023-04-11T11:39:35.618Z,9.40
2023-04-11T11:43:40.251Z,8.80
2023-04-11T11:47:46.062Z,8.10
2023-04-11T11:51:49.721Z,7.60
2023-04-11T11:56:01.116Z,7.40
2023-04-11T12:00:11.087Z,7.20
2023-04-11T12:04:16.698Z,7.30
2023-04-11T12:08:23.564Z,7.20
2023-04-11T12:12:40.229Z,7.40
2023-04-11T12:16:43.764Z,7.30
2023-04-11T12:21:08.080Z,7.70
2023-04-11T12:25:16.049Z,8.00
2023-04-11T12:29:23.442Z,8.10
2023-04-11T12:33:31.353Z,7.80
2023-04-11T12:37:40.085Z,7.70
2023-04-11T12:42:11.659Z,8.10
2023-04-11T12:46:31.448Z,8.30
2023-04-11T12:50:35.403Z,8.60
2023-04-11T12:54:55.105Z,9.00
2023-04-11T12:59:36.830Z,9.00
2023-04-11T13:08:17.088Z,9.00
2023-04-11T13:13:05.431Z,9.50
2023-04-11T13:18:02.016Z,9.80
2023-04-11T13:22:26.005Z,9.90
2023-04-11T13:26:30.332Z,9.60
2023-04-11T13:30:36.602Z,9.60
2023-04-11T13:34:40.280Z,9.90
2023-04-11T13:39:13.785Z,10.20
2023-04-11T13:43:17.955Z,10.60
2023-04-11T13:47:23.167Z,11.10
2023-04-11T13:51:27.498Z,11.30
2023-04-11T13:55:31.547Z,11.20
2023-04-11T13:59:35.366Z,11.00
2023-04-11T14:03:58.860Z,11.20
2023-04-11T14:08:08.256Z,11.10
2023-04-11T14:12:12.253Z,11.00
2023-04-11T14:16:43.731Z,11.20
2023-04-11T14:20:49.056Z,11.30
2023-04-11T14:25:17.895Z,11.50
2023-04-11T14:29:23.061Z,11.50
2023-04-11T14:33:27.293Z,11.40
2023-04-11T14:37:33.349Z,11.50
2023-04-11T14:41:36.983Z,11.10
2023-04-11T14:45:49.090Z,11.00
2023-04-11T14:49:52.851Z,11.10
2023-04-11T14:53:59.935Z,11.00
2023-04-11T14:58:06.124Z,10.90
2023-04-11T15:02:09.776Z,11.00
2023-04-11T15:06:14.109Z,10.80
2023-04-11T15:10:22.540Z,10.60
2023-04-11T15:14:31.767Z,10.60
2023-04-11T15:18:36.404Z,10.80
2023-04-11T15:22:45.199Z,10.60
2023-04-11T15:27:16.994Z,10.40
2023-04-11T15:31:26.618Z,10.50
2023-04-11T15:35:30.562Z,10.60
2023-04-11T15:40:06.334Z,10.60
2023-04-11T15:44:11.601Z,10.60
2023-04-11T15:48:20.804Z,10.60
2023-04-11T15:52:24.491Z,10.60
2023-04-11T15:57:19.795Z,10.60
2023-04-11T16:01:25.921Z,10.50
2023-04-11T16:05:32.304Z,10.40
2023-04-11T16:09:36.044Z,10.20
2023-04-11T16:14:08.669Z,10.20
2023-04-11T16:18:13.942Z,10.10
2023-04-11T16:22:20.342Z,9.80
2023-04-11T16:26:25.255Z,9.80
2023-04-11T16:30:29.065Z,9.60
2023-04-11T16:34:35.784Z,9.30
2023-04-11T16:38:39.472Z,8.70
2023-04-11T16:42:50.212Z,8.10
2023-04-11T16:47:07.474Z,7.40
2023-04-11T16:51:13.528Z,6.50
2023-04-11T17:00:53.258Z,5.50
2023-04-11T17:05:19.246Z,5.20
2023-04-11T17:09:24.615Z,5.00
2023-04-11T17:14:18.150Z,5.00
2023-04-11T17:18:21.823Z,5.00
2023-04-11T17:22:30.270Z,4.70
2023-04-11T17:27:25.047Z,4.80
2023-04-11T17:31:31.113Z,4.80
2023-04-11T17:35:53.490Z,5.00
2023-04-11T17:39:57.835Z,5.10
2023-04-11T17:44:28.360Z,5.00
2023-04-11T17:49:17.476Z,4.80
2023-04-11T17:53:30.072Z,4.60
2023-04-11T17:58:16.916Z,4.50
2023-04-11T18:02:50.182Z,4.40
2023-04-11T18:11:49.493Z,4.70
2023-04-11T18:15:58.776Z,4.70
2023-04-11T18:25:21.360Z,4.60
2023-04-11T18:58:44.151Z,3.80
2023-04-11T19:08:55.210Z,3.70
2023-04-11T19:36:16.694Z,3.20
2023-04-11T19:41:52.131Z,3.30
2023-04-11T20:46:53.776Z,2.90
2023-04-11T20:51:02.021Z,2.80
2023-04-11T20:55:13.893Z,2.80
2023-04-11T20:59:17.446Z,2.70
2023-04-11T21:03:22.907Z,2.70
2023-04-11T21:07:26.675Z,2.70
2023-04-11T21:11:30.415Z,2.70
2023-04-11T21:15:35.233Z,2.70
2023-04-11T21:19:42.513Z,2.70
2023-04-11T21:23:46.168Z,2.60
2023-04-11T21:27:52.096Z,2.60
2023-04-11T21:31:55.737Z,2.60
2023-04-11T21:36:00.775Z,2.60
2023-04-11T21:40:06.290Z,2.50
2023-04-11T21:44:09.860Z,2.50
2023-04-11T21:48:13.440Z,2.40
2023-04-11T21:53:10.919Z,2.40
2023-04-11T21:57:15.978Z,2.40
2023-04-11T22:01:20.958Z,2.40
2023-04-11T22:05:36.216Z,2.30
2023-04-11T22:09:46.565Z,2.30
2023-04-11T22:13:52.524Z,2.20
2023-04-11T22:18:28.077Z,2.20
2023-04-11T22:22:32.487Z,2.20
2023-04-11T22:26:49.266Z,2.10
2023-04-11T22:30:54.711Z,2.10
2023-04-11T22:34:59.760Z,2.10
2023-04-11T22:39:16.448Z,2.00
2023-04-11T22:43:19.975Z,2.00
2023-04-11T22:47:25.026Z,2.00
2023-04-11T22:51:34.012Z,2.00
2023-04-11T22:56:24.441Z,2.00
2023-04-11T23:00:29.153Z,2.00
2023-04-11T23:05:22.594Z,1.90
2023-04-11T23:09:28.471Z,1.90
2023-04-11T23:13:32.244Z,1.90
2023-04-11T23:17:37.829Z,1.90
2023-04-11T23:21:41.390Z,2.00
2023-04-11T23:25:46.364Z,2.00
2023-04-11T23:29:59.270Z,2.00
2023-04-11T23:34:03.195Z,2.10
2023-04-11T23:38:06.879Z,2.00
2023-04-11T23:42:12.468Z,2.10
2023-04-11T23:47:34.690Z,2.10
2023-04-11T23:51:38.376Z,2.10
2023-04-11T23:55:43.415Z,2.00
2023-04-11T23:59:48.652Z,1.90
